TimeWET,TemperatureF,Dew PointF,Humidity,Sea Level PressureIn,VisibilityMPH,Wind Direction,Wind SpeedMPH,Gust SpeedMPH,PrecipitationIn,Events,Conditions,WindDirDegrees,DateUTC
12:00 AM,69,58,59,29.92,9,SSW,4.6,,,,Partly Cloudy,200,2012-11-08 00:00:00
12:00 AM,68.0,57.2,68,29.89,6.2,SSW,4.6,-,N/A,,Scattered Clouds,200,2012-11-08 00:00:00
1:00 AM,68.0,57.2,68,29.83,6.2,ESE,6.9,-,N/A,,Scattered Clouds,120,2012-11-08 01:00:00
2:00 AM,68.0,57.2,68,29.83,6.2,ESE,6.9,-,N/A,,Scattered Clouds,120,2012-11-08 02:00:00
3:00 AM,67,57,63,29.87,9,ESE,6.9,,,,Partly Cloudy,120,2012-11-08 03:00:00
3:00 AM,68.0,57.2,68,29.83,6.2,ESE,6.9,-,N/A,,Scattered Clouds,120,2012-11-08 03:00:00
4:00 AM,68.0,57.2,68,29.83,6.2,ESE,6.9,-,N/A,,Scattered Clouds,120,2012-11-08 04:00:00
5:00 AM,68.0,57.2,68,29.83,6.2,ESE,4.6,-,N/A,,Mostly Cloudy,120,2012-11-08 05:00:00
6:00 AM,66,61,80,29.89,9,SW,4.6,,,,Partly Cloudy,220,2012-11-08 06:00:00
6:00 AM,66.2,60.8,83,29.86,6.2,SW,4.6,-,N/A,,Partly Cloudy,220,2012-11-08 06:00:00
7:00 AM,68.0,66.2,94,29.86,6.2,NW,4.6,-,N/A,,Mostly Cloudy,320,2012-11-08 07:00:00
8:00 AM,68.0,66.2,94,29.89,6.2,NW,6.9,-,N/A,,Scattered Clouds,320,2012-11-08 08:00:00
9:00 AM,68,66,92,29.93,6,NNW,6.9,,,Rain,Light Rain,340,2012-11-08 09:00:00
9:00 AM,68.0,66.2,94,29.89,6.2,NNW,6.9,-,N/A,Rain,Rain,340,2012-11-08 09:00:00
10:00 AM,68.0,66.2,94,29.92,5.0,NNW,6.9,-,N/A,Rain,Rain,340,2012-11-08 10:00:00
11:00 AM,66.2,62.6,88,29.92,5.0,NW,6.9,-,N/A,Rain,Rain,320,2012-11-08 11:00:00
12:00 PM,66,62,85,29.97,5,NNW,4.6,,,Rain,Light Rain,340,2012-11-08 12:00:00
12:00 PM,66.2,62.6,88,29.92,5.0,NNW,4.6,-,N/A,Rain,Rain,340,2012-11-08 12:00:00
1:00 PM,68.0,62.6,83,29.92,5.0,North,4.6,-,N/A,Rain,Rain,360,2012-11-08 13:00:00
2:00 PM,66.2,60.8,83,29.92,5.0,North,4.6,-,N/A,,Scattered Clouds,360,2012-11-08 14:00:00
3:00 PM,68,61,71,29.95,5,North,4.6,,,,Overcast,0,2012-11-08 15:00:00
3:00 PM,68.0,60.8,78,29.95,5.0,North,4.6,-,N/A,,Scattered Clouds,360,2012-11-08 15:00:00
4:00 PM,68.0,60.8,78,29.92,5.0,NNE,4.6,-,N/A,,Mostly Cloudy,20,2012-11-08 16:00:00
5:00 PM,66.2,60.8,83,29.92,5.0,NNE,4.6,-,N/A,,Scattered Clouds,20,2012-11-08 17:00:00
6:00 PM,67,60,72,29.95,5,NNW,4.6,,,,Overcast,340,2012-11-08 18:00:00
6:00 PM,66.2,60.8,83,29.92,5.0,NNW,4.6,-,N/A,,Overcast,340,2012-11-08 18:00:00
7:00 PM,64.4,60.8,88,29.92,6.2,NNE,2.3,-,N/A,,Scattered Clouds,20,2012-11-08 19:00:00
8:00 PM,64.4,60.8,88,29.92,5.0,NW,2.3,-,N/A,Thunderstorm,Thunderstorm,320,2012-11-08 20:00:00
9:00 PM,64,61,85,29.98,5,West,2.3,,,Thunderstorm,Light Thunderstorm,280,2012-11-08 21:00:00
9:00 PM,64.4,60.8,88,29.92,5.0,West,2.3,-,N/A,Thunderstorm,Thunderstorm,280,2012-11-08 21:00:00
10:00 PM,64.4,60.8,88,29.92,5.0,West,2.3,-,N/A,Thunderstorm,Thunderstorm,280,2012-11-08 22:00:00
11:00 PM,62.6,60.8,94,29.92,5.0,South,4.6,-,N/A,Thunderstorm,Thunderstorm,180,2012-11-08 23:00:00